sensor_id;sensor_type;location;lat;lon;timestamp;P1;durP1;ratioP1;P2;durP2;ratioP2
10967;SDS011;5536;49.602;10.980;2023-05-23T00:00:35;2.03;;;1.60;;
10967;SDS011;5536;49.602;10.980;2023-05-23T00:03:02;4.47;;;1.87;;
10967;SDS011;5536;49.602;10.980;2023-05-23T00:05:29;2.73;;;1.53;;
10967;SDS011;5536;49.602;10.980;2023-05-23T00:07:58;1.77;;;1.67;;
10967;SDS011;5536;49.602;10.980;2023-05-23T00:10:25;2.37;;;1.87;;
10967;SDS011;5536;49.602;10.980;2023-05-23T00:12:53;1.80;;;1.70;;
10967;SDS011;5536;49.602;10.980;2023-05-23T00:15:22;1.73;;;1.55;;
10967;SDS011;5536;49.602;10.980;2023-05-23T00:17:49;1.80;;;1.70;;
10967;SDS011;5536;49.602;10.980;2023-05-23T00:20:17;1.97;;;1.77;;
10967;SDS011;5536;49.602;10.980;2023-05-23T00:22:45;4.38;;;1.85;;
10967;SDS011;5536;49.602;10.980;2023-05-23T00:25:13;2.50;;;1.52;;
10967;SDS011;5536;49.602;10.980;2023-05-23T00:27:40;2.53;;;1.67;;
10967;SDS011;5536;49.602;10.980;2023-05-23T00:30:07;1.90;;;1.30;;
10967;SDS011;5536;49.602;10.980;2023-05-23T00:32:35;5.00;;;1.83;;
10967;SDS011;5536;49.602;10.980;2023-05-23T00:35:02;1.80;;;1.70;;
10967;SDS011;5536;49.602;10.980;2023-05-23T00:37:29;2.83;;;1.93;;
10967;SDS011;5536;49.602;10.980;2023-05-23T00:39:58;1.38;;;1.27;;
10967;SDS011;5536;49.602;10.980;2023-05-23T00:42:26;3.25;;;1.88;;
10967;SDS011;5536;49.602;10.980;2023-05-23T00:44:53;5.53;;;1.70;;
10967;SDS011;5536;49.602;10.980;2023-05-23T00:47:20;2.22;;;1.90;;
10967;SDS011;5536;49.602;10.980;2023-05-23T00:49:47;2.03;;;1.67;;
10967;SDS011;5536;49.602;10.980;2023-05-23T00:52:14;1.97;;;1.57;;
10967;SDS011;5536;49.602;10.980;2023-05-23T00:54:42;3.17;;;1.50;;
10967;SDS011;5536;49.602;10.980;2023-05-23T00:57:10;1.38;;;1.30;;
10967;SDS011;5536;49.602;10.980;2023-05-23T00:59:39;1.95;;;1.70;;
10967;SDS011;5536;49.602;10.980;2023-05-23T01:02:07;2.38;;;1.83;;
10967;SDS011;5536;49.602;10.980;2023-05-23T01:04:35;3.28;;;2.38;;
10967;SDS011;5536;49.602;10.980;2023-05-23T01:07:03;3.80;;;1.70;;
10967;SDS011;5536;49.602;10.980;2023-05-23T01:09:30;6.10;;;1.60;;
10967;SDS011;5536;49.602;10.980;2023-05-23T01:12:00;3.57;;;2.30;;
10967;SDS011;5536;49.602;10.980;2023-05-23T01:14:37;2.35;;;1.77;;
10967;SDS011;5536;49.602;10.980;2023-05-23T01:17:10;2.37;;;2.03;;
10967;SDS011;5536;49.602;10.980;2023-05-23T01:19:51;2.80;;;2.27;;
10967;SDS011;5536;49.602;10.980;2023-05-23T01:22:30;2.37;;;1.77;;
10967;SDS011;5536;49.602;10.980;2023-05-23T01:25:06;3.33;;;1.50;;
10967;SDS011;5536;49.602;10.980;2023-05-23T01:27:45;2.40;;;2.20;;
10967;SDS011;5536;49.602;10.980;2023-05-23T01:30:16;2.10;;;1.92;;
10967;SDS011;5536;49.602;10.980;2023-05-23T01:32:46;2.72;;;1.98;;
10967;SDS011;5536;49.602;10.980;2023-05-23T01:35:17;2.67;;;1.70;;
10967;SDS011;5536;49.602;10.980;2023-05-23T01:37:47;2.43;;;1.80;;
10967;SDS011;5536;49.602;10.980;2023-05-23T01:40:14;1.53;;;1.43;;
10967;SDS011;5536;49.602;10.980;2023-05-23T01:42:42;1.83;;;1.67;;
10967;SDS011;5536;49.602;10.980;2023-05-23T01:45:10;1.70;;;1.60;;
10967;SDS011;5536;49.602;10.980;2023-05-23T01:47:38;1.40;;;1.30;;
10967;SDS011;5536;49.602;10.980;2023-05-23T01:50:07;1.53;;;1.43;;
10967;SDS011;5536;49.602;10.980;2023-05-23T01:52:35;2.37;;;2.00;;
10967;SDS011;5536;49.602;10.980;2023-05-23T01:55:04;2.00;;;1.80;;
10967;SDS011;5536;49.602;10.980;2023-05-23T01:57:34;1.40;;;1.30;;
10967;SDS011;5536;49.602;10.980;2023-05-23T02:00:02;3.40;;;1.97;;
10967;SDS011;5536;49.602;10.980;2023-05-23T02:02:33;2.67;;;1.67;;
10967;SDS011;5536;49.602;10.980;2023-05-23T02:05:00;1.73;;;1.57;;
10967;SDS011;5536;49.602;10.980;2023-05-23T02:07:27;1.87;;;1.73;;
10967;SDS011;5536;49.602;10.980;2023-05-23T02:09:54;3.57;;;2.10;;
10967;SDS011;5536;49.602;10.980;2023-05-23T02:12:21;2.13;;;1.97;;
10967;SDS011;5536;49.602;10.980;2023-05-23T02:14:48;1.47;;;1.37;;
10967;SDS011;5536;49.602;10.980;2023-05-23T02:17:16;2.33;;;1.70;;
10967;SDS011;5536;49.602;10.980;2023-05-23T02:19:44;2.23;;;2.00;;
10967;SDS011;5536;49.602;10.980;2023-05-23T02:22:11;1.57;;;1.47;;
10967;SDS011;5536;49.602;10.980;2023-05-23T02:24:39;2.40;;;2.20;;
10967;SDS011;5536;49.602;10.980;2023-05-23T02:27:06;4.10;;;2.07;;
10967;SDS011;5536;49.602;10.980;2023-05-23T02:29:33;1.73;;;1.63;;
10967;SDS011;5536;49.602;10.980;2023-05-23T02:32:00;2.00;;;1.70;;
10967;SDS011;5536;49.602;10.980;2023-05-23T02:34:27;2.27;;;2.07;;
10967;SDS011;5536;49.602;10.980;2023-05-23T02:36:56;1.53;;;1.43;;
10967;SDS011;5536;49.602;10.980;2023-05-23T02:39:23;1.93;;;1.77;;
10967;SDS011;5536;49.602;10.980;2023-05-23T02:41:50;2.10;;;2.00;;
10967;SDS011;5536;49.602;10.980;2023-05-23T02:44:17;1.57;;;1.47;;
10967;SDS011;5536;49.602;10.980;2023-05-23T02:46:44;2.23;;;2.03;;
10967;SDS011;5536;49.602;10.980;2023-05-23T02:49:12;3.43;;;1.83;;
10967;SDS011;5536;49.602;10.980;2023-05-23T02:51:39;1.97;;;1.80;;
10967;SDS011;5536;49.602;10.980;2023-05-23T02:54:07;4.57;;;2.00;;
10967;SDS011;5536;49.602;10.980;2023-05-23T02:56:34;3.03;;;1.93;;
10967;SDS011;5536;49.602;10.980;2023-05-23T02:59:01;1.80;;;1.70;;
10967;SDS011;5536;49.602;10.980;2023-05-23T03:01:28;2.03;;;1.53;;
10967;SDS011;5536;49.602;10.980;2023-05-23T03:03:56;1.47;;;1.43;;
10967;SDS011;5536;49.602;10.980;2023-05-23T03:06:22;2.73;;;1.97;;
10967;SDS011;5536;49.602;10.980;2023-05-23T03:08:51;3.87;;;2.90;;
10967;SDS011;5536;49.602;10.980;2023-05-23T03:11:20;2.00;;;1.87;;
10967;SDS011;5536;49.602;10.980;2023-05-23T03:13:47;1.40;;;1.37;;
10967;SDS011;5536;49.602;10.980;2023-05-23T03:16:14;2.10;;;1.70;;
10967;SDS011;5536;49.602;10.980;2023-05-23T03:18:41;2.80;;;2.53;;
10967;SDS011;5536;49.602;10.980;2023-05-23T03:21:08;2.20;;;2.00;;
10967;SDS011;5536;49.602;10.980;2023-05-23T03:23:35;1.50;;;1.40;;
10967;SDS011;5536;49.602;10.980;2023-05-23T03:26:02;2.37;;;1.73;;
10967;SDS011;5536;49.602;10.980;2023-05-23T03:28:32;2.63;;;2.10;;
10967;SDS011;5536;49.602;10.980;2023-05-23T03:30:59;2.67;;;2.03;;
10967;SDS011;5536;49.602;10.980;2023-05-23T03:33:26;1.70;;;1.60;;
10967;SDS011;5536;49.602;10.980;2023-05-23T03:35:53;2.67;;;2.07;;
10967;SDS011;5536;49.602;10.980;2023-05-23T03:38:22;2.53;;;2.13;;
10967;SDS011;5536;49.602;10.980;2023-05-23T03:40:49;2.67;;;2.23;;
10967;SDS011;5536;49.602;10.980;2023-05-23T03:43:19;2.67;;;2.17;;
10967;SDS011;5536;49.602;10.980;2023-05-23T03:45:50;2.70;;;1.60;;
10967;SDS011;5536;49.602;10.980;2023-05-23T03:48:18;4.27;;;2.17;;
10967;SDS011;5536;49.602;10.980;2023-05-23T03:50:46;3.03;;;2.10;;
10967;SDS011;5536;49.602;10.980;2023-05-23T03:53:13;2.50;;;2.13;;
10967;SDS011;5536;49.602;10.980;2023-05-23T03:55:41;3.37;;;1.83;;
10967;SDS011;5536;49.602;10.980;2023-05-23T03:58:08;2.93;;;2.00;;
10967;SDS011;5536;49.602;10.980;2023-05-23T04:00:36;2.40;;;2.20;;
10967;SDS011;5536;49.602;10.980;2023-05-23T04:03:08;2.67;;;1.67;;
10967;SDS011;5536;49.602;10.980;2023-05-23T04:05:38;2.80;;;2.30;;
10967;SDS011;5536;49.602;10.980;2023-05-23T04:08:07;6.20;;;2.20;;
10967;SDS011;5536;49.602;10.980;2023-05-23T04:10:37;1.63;;;1.57;;
10967;SDS011;5536;49.602;10.980;2023-05-23T04:13:04;1.63;;;1.50;;
10967;SDS011;5536;49.602;10.980;2023-05-23T04:15:31;2.00;;;1.70;;
10967;SDS011;5536;49.602;10.980;2023-05-23T04:17:59;2.63;;;1.70;;
10967;SDS011;5536;49.602;10.980;2023-05-23T04:20:31;2.50;;;1.70;;
10967;SDS011;5536;49.602;10.980;2023-05-23T04:23:02;2.30;;;2.00;;
10967;SDS011;5536;49.602;10.980;2023-05-23T04:25:31;2.43;;;1.70;;
10967;SDS011;5536;49.602;10.980;2023-05-23T04:27:59;2.23;;;1.83;;
10967;SDS011;5536;49.602;10.980;2023-05-23T04:30:26;2.87;;;2.50;;
10967;SDS011;5536;49.602;10.980;2023-05-23T04:32:55;2.00;;;1.30;;
10967;SDS011;5536;49.602;10.980;2023-05-23T04:35:24;1.80;;;1.70;;
10967;SDS011;5536;49.602;10.980;2023-05-23T04:37:54;2.23;;;2.03;;
10967;SDS011;5536;49.602;10.980;2023-05-23T04:40:21;2.17;;;1.97;;
10967;SDS011;5536;49.602;10.980;2023-05-23T04:42:49;1.83;;;1.70;;
10967;SDS011;5536;49.602;10.980;2023-05-23T04:45:16;2.23;;;2.00;;
10967;SDS011;5536;49.602;10.980;2023-05-23T04:47:46;2.13;;;1.90;;
10967;SDS011;5536;49.602;10.980;2023-05-23T04:50:15;3.27;;;2.17;;
10967;SDS011;5536;49.602;10.980;2023-05-23T04:52:46;6.93;;;2.60;;
10967;SDS011;5536;49.602;10.980;2023-05-23T04:55:15;1.93;;;1.57;;
10967;SDS011;5536;49.602;10.980;2023-05-23T04:57:44;2.00;;;1.70;;
10967;SDS011;5536;49.602;10.980;2023-05-23T05:00:12;1.80;;;1.60;;
10967;SDS011;5536;49.602;10.980;2023-05-23T05:02:40;1.60;;;1.50;;
10967;SDS011;5536;49.602;10.980;2023-05-23T05:05:08;2.27;;;1.80;;
10967;SDS011;5536;49.602;10.980;2023-05-23T05:07:36;2.40;;;2.20;;
10967;SDS011;5536;49.602;10.980;2023-05-23T05:10:04;1.60;;;1.50;;
10967;SDS011;5536;49.602;10.980;2023-05-23T05:12:42;1.90;;;1.43;;
10967;SDS011;5536;49.602;10.980;2023-05-23T05:15:11;2.00;;;1.80;;
10967;SDS011;5536;49.602;10.980;2023-05-23T05:17:38;1.93;;;1.83;;
10967;SDS011;5536;49.602;10.980;2023-05-23T05:20:06;3.10;;;2.80;;
10967;SDS011;5536;49.602;10.980;2023-05-23T05:22:37;1.70;;;1.60;;
10967;SDS011;5536;49.602;10.980;2023-05-23T05:25:07;1.50;;;1.40;;
10967;SDS011;5536;49.602;10.980;2023-05-23T05:27:36;4.03;;;2.20;;
10967;SDS011;5536;49.602;10.980;2023-05-23T05:30:07;1.37;;;1.27;;
10967;SDS011;5536;49.602;10.980;2023-05-23T05:32:36;1.93;;;1.77;;
10967;SDS011;5536;49.602;10.980;2023-05-23T05:35:04;3.40;;;1.60;;
10967;SDS011;5536;49.602;10.980;2023-05-23T05:37:38;1.70;;;1.60;;
10967;SDS011;5536;49.602;10.980;2023-05-23T05:40:09;2.87;;;1.97;;
10967;SDS011;5536;49.602;10.980;2023-05-23T05:42:40;2.83;;;1.57;;
10967;SDS011;5536;49.602;10.980;2023-05-23T05:45:16;2.13;;;1.93;;
10967;SDS011;5536;49.602;10.980;2023-05-23T05:47:45;2.17;;;1.77;;
10967;SDS011;5536;49.602;10.980;2023-05-23T05:50:13;1.57;;;1.17;;
10967;SDS011;5536;49.602;10.980;2023-05-23T05:52:46;1.77;;;1.60;;
10967;SDS011;5536;49.602;10.980;2023-05-23T05:55:13;1.73;;;1.23;;
10967;SDS011;5536;49.602;10.980;2023-05-23T05:57:44;1.80;;;1.70;;
10967;SDS011;5536;49.602;10.980;2023-05-23T06:00:12;1.60;;;1.50;;
10967;SDS011;5536;49.602;10.980;2023-05-23T06:02:45;1.88;;;1.75;;
10967;SDS011;5536;49.602;10.980;2023-05-23T06:05:15;1.52;;;1.42;;
10967;SDS011;5536;49.602;10.980;2023-05-23T06:07:47;2.45;;;1.40;;
10967;SDS011;5536;49.602;10.980;2023-05-23T06:10:15;1.85;;;1.40;;
10967;SDS011;5536;49.602;10.980;2023-05-23T06:12:44;1.70;;;1.60;;
10967;SDS011;5536;49.602;10.980;2023-05-23T06:15:11;2.00;;;1.60;;
10967;SDS011;5536;49.602;10.980;2023-05-23T06:17:40;1.60;;;1.38;;
10967;SDS011;5536;49.602;10.980;2023-05-23T06:20:13;2.25;;;1.75;;
10967;SDS011;5536;49.602;10.980;2023-05-23T06:22:40;3.10;;;1.63;;
10967;SDS011;5536;49.602;10.980;2023-05-23T06:25:15;1.80;;;1.65;;
10967;SDS011;5536;49.602;10.980;2023-05-23T06:27:44;2.65;;;1.80;;
10967;SDS011;5536;49.602;10.980;2023-05-23T06:30:13;1.70;;;1.60;;
10967;SDS011;5536;49.602;10.980;2023-05-23T06:32:40;2.10;;;1.50;;
10967;SDS011;5536;49.602;10.980;2023-05-23T06:35:11;1.67;;;1.58;;
10967;SDS011;5536;49.602;10.980;2023-05-23T06:37:39;2.45;;;1.75;;
10967;SDS011;5536;49.602;10.980;2023-05-23T06:40:12;2.97;;;2.20;;
10967;SDS011;5536;49.602;10.980;2023-05-23T06:42:42;2.28;;;1.63;;
10967;SDS011;5536;49.602;10.980;2023-05-23T06:45:15;4.60;;;1.90;;
10967;SDS011;5536;49.602;10.980;2023-05-23T06:47:44;2.15;;;1.45;;
10967;SDS011;5536;49.602;10.980;2023-05-23T06:50:18;1.50;;;1.40;;
10967;SDS011;5536;49.602;10.980;2023-05-23T06:52:50;3.40;;;2.00;;
10967;SDS011;5536;49.602;10.980;2023-05-23T06:55:20;3.42;;;1.60;;
10967;SDS011;5536;49.602;10.980;2023-05-23T06:58:01;2.00;;;1.85;;
10967;SDS011;5536;49.602;10.980;2023-05-23T07:00:30;1.55;;;1.45;;
10967;SDS011;5536;49.602;10.980;2023-05-23T07:02:58;2.83;;;1.75;;
10967;SDS011;5536;49.602;10.980;2023-05-23T07:05:29;1.70;;;1.55;;
10967;SDS011;5536;49.602;10.980;2023-05-23T07:07:57;2.75;;;1.92;;
10967;SDS011;5536;49.602;10.980;2023-05-23T07:10:25;4.68;;;2.00;;
10967;SDS011;5536;49.602;10.980;2023-05-23T07:12:52;1.98;;;1.55;;
10967;SDS011;5536;49.602;10.980;2023-05-23T07:15:19;2.03;;;1.17;;
10967;SDS011;5536;49.602;10.980;2023-05-23T07:17:49;1.92;;;1.73;;
10967;SDS011;5536;49.602;10.980;2023-05-23T07:20:17;2.65;;;1.52;;
10967;SDS011;5536;49.602;10.980;2023-05-23T07:22:49;2.50;;;1.98;;
10967;SDS011;5536;49.602;10.980;2023-05-23T07:25:16;1.73;;;1.63;;
10967;SDS011;5536;49.602;10.980;2023-05-23T07:27:44;1.60;;;1.50;;
10967;SDS011;5536;49.602;10.980;2023-05-23T07:30:13;4.60;;;1.92;;
10967;SDS011;5536;49.602;10.980;2023-05-23T07:32:41;2.58;;;1.70;;
10967;SDS011;5536;49.602;10.980;2023-05-23T07:35:12;2.47;;;2.28;;
10967;SDS011;5536;49.602;10.980;2023-05-23T07:37:49;2.97;;;1.73;;
10967;SDS011;5536;49.602;10.980;2023-05-23T07:40:17;1.45;;;1.33;;
10967;SDS011;5536;49.602;10.980;2023-05-23T07:42:44;3.40;;;1.98;;
10967;SDS011;5536;49.602;10.980;2023-05-23T07:45:12;2.00;;;1.80;;
10967;SDS011;5536;49.602;10.980;2023-05-23T07:47:40;2.05;;;1.40;;
10967;SDS011;5536;49.602;10.980;2023-05-23T07:50:08;1.50;;;1.40;;
10967;SDS011;5536;49.602;10.980;2023-05-23T07:52:35;2.10;;;1.65;;
10967;SDS011;5536;49.602;10.980;2023-05-23T07:55:05;1.83;;;1.48;;
10967;SDS011;5536;49.602;10.980;2023-05-23T07:57:43;2.40;;;1.45;;
10967;SDS011;5536;49.602;10.980;2023-05-23T08:00:11;2.17;;;1.98;;
10967;SDS011;5536;49.602;10.980;2023-05-23T08:02:41;1.50;;;1.40;;
10967;SDS011;5536;49.602;10.980;2023-05-23T08:05:09;1.90;;;1.63;;
10967;SDS011;5536;49.602;10.980;2023-05-23T08:07:36;1.73;;;1.63;;
10967;SDS011;5536;49.602;10.980;2023-05-23T08:10:06;1.95;;;1.75;;
10967;SDS011;5536;49.602;10.980;2023-05-23T08:12:34;1.48;;;1.33;;
10967;SDS011;5536;49.602;10.980;2023-05-23T08:15:02;1.95;;;1.67;;
10967;SDS011;5536;49.602;10.980;2023-05-23T08:17:30;2.33;;;1.33;;
10967;SDS011;5536;49.602;10.980;2023-05-23T08:19:58;2.20;;;1.70;;
10967;SDS011;5536;49.602;10.980;2023-05-23T08:22:28;2.25;;;2.03;;
10967;SDS011;5536;49.602;10.980;2023-05-23T08:24:56;2.22;;;2.03;;
10967;SDS011;5536;49.602;10.980;2023-05-23T08:27:26;2.17;;;1.98;;
10967;SDS011;5536;49.602;10.980;2023-05-23T08:29:55;2.63;;;2.03;;
10967;SDS011;5536;49.602;10.980;2023-05-23T08:32:23;2.03;;;1.65;;
10967;SDS011;5536;49.602;10.980;2023-05-23T08:34:51;2.53;;;1.92;;
10967;SDS011;5536;49.602;10.980;2023-05-23T08:37:19;2.13;;;1.92;;
10967;SDS011;5536;49.602;10.980;2023-05-23T08:39:46;1.27;;;1.17;;
10967;SDS011;5536;49.602;10.980;2023-05-23T08:42:16;2.03;;;1.83;;
10967;SDS011;5536;49.602;10.980;2023-05-23T08:44:49;1.20;;;1.20;;
10967;SDS011;5536;49.602;10.980;2023-05-23T08:47:18;1.17;;;1.15;;
10967;SDS011;5536;49.602;10.980;2023-05-23T08:49:47;2.25;;;1.77;;
10967;SDS011;5536;49.602;10.980;2023-05-23T08:52:16;1.50;;;1.40;;
10967;SDS011;5536;49.602;10.980;2023-05-23T08:54:53;3.45;;;1.88;;
10967;SDS011;5536;49.602;10.980;2023-05-23T08:57:24;2.10;;;1.90;;
10967;SDS011;5536;49.602;10.980;2023-05-23T08:59:54;1.52;;;1.42;;
10967;SDS011;5536;49.602;10.980;2023-05-23T09:02:23;2.50;;;1.45;;
10967;SDS011;5536;49.602;10.980;2023-05-23T09:04:50;1.75;;;1.65;;
10967;SDS011;5536;49.602;10.980;2023-05-23T09:07:20;1.77;;;1.67;;
10967;SDS011;5536;49.602;10.980;2023-05-23T09:09:54;1.38;;;1.25;;
10967;SDS011;5536;49.602;10.980;2023-05-23T09:12:35;3.58;;;1.30;;
10967;SDS011;5536;49.602;10.980;2023-05-23T09:15:06;3.42;;;1.85;;
10967;SDS011;5536;49.602;10.980;2023-05-23T09:17:33;1.60;;;1.50;;
10967;SDS011;5536;49.602;10.980;2023-05-23T09:20:09;2.05;;;1.58;;
10967;SDS011;5536;49.602;10.980;2023-05-23T09:22:38;2.03;;;1.52;;
10967;SDS011;5536;49.602;10.980;2023-05-23T09:25:06;1.77;;;1.67;;
10967;SDS011;5536;49.602;10.980;2023-05-23T09:27:33;1.83;;;1.73;;
10967;SDS011;5536;49.602;10.980;2023-05-23T09:30:06;2.20;;;1.60;;
10967;SDS011;5536;49.602;10.980;2023-05-23T09:32:35;1.42;;;1.27;;
10967;SDS011;5536;49.602;10.980;2023-05-23T09:35:03;1.58;;;1.48;;
10967;SDS011;5536;49.602;10.980;2023-05-23T09:37:34;1.40;;;1.30;;
10967;SDS011;5536;49.602;10.980;2023-05-23T09:40:05;1.23;;;1.10;;
10967;SDS011;5536;49.602;10.980;2023-05-23T09:42:40;1.10;;;1.02;;
10967;SDS011;5536;49.602;10.980;2023-05-23T09:45:12;1.50;;;1.40;;
10967;SDS011;5536;49.602;10.980;2023-05-23T09:47:45;1.30;;;1.20;;
10967;SDS011;5536;49.602;10.980;2023-05-23T09:50:16;1.50;;;1.40;;
10967;SDS011;5536;49.602;10.980;2023-05-23T09:52:43;1.02;;;1.02;;
10967;SDS011;5536;49.602;10.980;2023-05-23T09:55:12;1.50;;;1.40;;
10967;SDS011;5536;49.602;10.980;2023-05-23T09:57:40;1.25;;;1.15;;
10967;SDS011;5536;49.602;10.980;2023-05-23T10:00:12;1.42;;;1.27;;
10967;SDS011;5536;49.602;10.980;2023-05-23T10:02:52;2.35;;;1.30;;
10967;SDS011;5536;49.602;10.980;2023-05-23T10:05:26;1.92;;;1.52;;
10967;SDS011;5536;49.602;10.980;2023-05-23T10:08:00;1.52;;;1.10;;
10967;SDS011;5536;49.602;10.980;2023-05-23T10:10:31;0.75;;;0.75;;
10967;SDS011;5536;49.602;10.980;2023-05-23T10:13:01;1.10;;;1.10;;
10967;SDS011;5536;49.602;10.980;2023-05-23T10:15:35;1.63;;;1.02;;
10967;SDS011;5536;49.602;10.980;2023-05-23T10:18:08;1.92;;;1.52;;
10967;SDS011;5536;49.602;10.980;2023-05-23T10:20:38;1.48;;;1.00;;
10967;SDS011;5536;49.602;10.980;2023-05-23T10:23:08;0.80;;;0.80;;
10967;SDS011;5536;49.602;10.980;2023-05-23T10:25:37;1.77;;;1.63;;
10967;SDS011;5536;49.602;10.980;2023-05-23T10:28:06;1.30;;;1.15;;
10967;SDS011;5536;49.602;10.980;2023-05-23T10:30:35;1.75;;;1.02;;
10967;SDS011;5536;49.602;10.980;2023-05-23T10:33:03;1.13;;;0.80;;
10967;SDS011;5536;49.602;10.980;2023-05-23T10:35:41;2.00;;;1.80;;
10967;SDS011;5536;49.602;10.980;2023-05-23T10:38:19;0.90;;;0.90;;
10967;SDS011;5536;49.602;10.980;2023-05-23T10:40:57;1.35;;;1.25;;
10967;SDS011;5536;49.602;10.980;2023-05-23T10:43:33;1.33;;;1.23;;
10967;SDS011;5536;49.602;10.980;2023-05-23T10:46:12;2.50;;;1.63;;
10967;SDS011;5536;49.602;10.980;2023-05-23T10:48:40;0.65;;;0.65;;
10967;SDS011;5536;49.602;10.980;2023-05-23T10:51:09;1.63;;;1.25;;
10967;SDS011;5536;49.602;10.980;2023-05-23T10:53:37;1.58;;;1.25;;
10967;SDS011;5536;49.602;10.980;2023-05-23T10:56:05;1.55;;;1.10;;
10967;SDS011;5536;49.602;10.980;2023-05-23T10:58:33;1.00;;;0.75;;
10967;SDS011;5536;49.602;10.980;2023-05-23T11:01:04;1.13;;;1.10;;
10967;SDS011;5536;49.602;10.980;2023-05-23T11:03:34;1.30;;;1.20;;
10967;SDS011;5536;49.602;10.980;2023-05-23T11:06:04;7.43;;;1.13;;
10967;SDS011;5536;49.602;10.980;2023-05-23T11:08:38;1.00;;;1.00;;
10967;SDS011;5536;49.602;10.980;2023-05-23T11:11:10;0.70;;;0.70;;
10967;SDS011;5536;49.602;10.980;2023-05-23T11:16:24;0.90;;;0.90;;
10967;SDS011;5536;49.602;10.980;2023-05-23T11:18:58;0.60;;;0.60;;
10967;SDS011;5536;49.602;10.980;2023-05-23T11:21:52;0.70;;;0.70;;
10967;SDS011;5536;49.602;10.980;2023-05-23T11:24:21;1.20;;;1.10;;
10967;SDS011;5536;49.602;10.980;2023-05-23T11:26:52;0.63;;;0.57;;
10967;SDS011;5536;49.602;10.980;2023-05-23T11:29:25;0.80;;;0.77;;
10967;SDS011;5536;49.602;10.980;2023-05-23T11:31:52;0.73;;;0.73;;
10967;SDS011;5536;49.602;10.980;2023-05-23T11:34:21;1.25;;;0.90;;
10967;SDS011;5536;49.602;10.980;2023-05-23T11:36:51;0.90;;;0.90;;
10967;SDS011;5536;49.602;10.980;2023-05-23T11:39:20;2.25;;;0.80;;
10967;SDS011;5536;49.602;10.980;2023-05-23T11:41:49;0.80;;;0.80;;
10967;SDS011;5536;49.602;10.980;2023-05-23T11:44:24;0.40;;;0.40;;
10967;SDS011;5536;49.602;10.980;2023-05-23T11:46:57;0.90;;;0.90;;
10967;SDS011;5536;49.602;10.980;2023-05-23T11:49:28;0.40;;;0.40;;
10967;SDS011;5536;49.602;10.980;2023-05-23T11:51:56;1.00;;;0.95;;
10967;SDS011;5536;49.602;10.980;2023-05-23T11:54:24;0.65;;;0.50;;
10967;SDS011;5536;49.602;10.980;2023-05-23T11:56:52;0.70;;;0.70;;
10967;SDS011;5536;49.602;10.980;2023-05-23T11:59:20;0.47;;;0.47;;
10967;SDS011;5536;49.602;10.980;2023-05-23T12:01:47;0.90;;;0.90;;
10967;SDS011;5536;49.602;10.980;2023-05-23T12:04:15;0.57;;;0.57;;
10967;SDS011;5536;49.602;10.980;2023-05-23T12:06:45;0.40;;;0.40;;
10967;SDS011;5536;49.602;10.980;2023-05-23T12:09:13;0.52;;;0.52;;
10967;SDS011;5536;49.602;10.980;2023-05-23T12:11:40;0.85;;;0.85;;
10967;SDS011;5536;49.602;10.980;2023-05-23T12:14:11;1.30;;;0.55;;
10967;SDS011;5536;49.602;10.980;2023-05-23T12:16:41;0.73;;;0.73;;
10967;SDS011;5536;49.602;10.980;2023-05-23T12:19:09;0.70;;;0.60;;
10967;SDS011;5536;49.602;10.980;2023-05-23T12:21:39;0.40;;;0.40;;
10967;SDS011;5536;49.602;10.980;2023-05-23T12:24:15;1.05;;;0.70;;
10967;SDS011;5536;49.602;10.980;2023-05-23T12:26:47;1.30;;;0.60;;
10967;SDS011;5536;49.602;10.980;2023-05-23T12:29:16;0.60;;;0.60;;
10967;SDS011;5536;49.602;10.980;2023-05-23T12:31:46;0.50;;;0.50;;
10967;SDS011;5536;49.602;10.980;2023-05-23T12:34:14;1.05;;;1.05;;
10967;SDS011;5536;49.602;10.980;2023-05-23T12:36:41;0.70;;;0.60;;
10967;SDS011;5536;49.602;10.980;2023-05-23T12:39:09;0.82;;;0.80;;
10967;SDS011;5536;49.602;10.980;2023-05-23T12:41:38;0.73;;;0.73;;
10967;SDS011;5536;49.602;10.980;2023-05-23T12:44:08;0.70;;;0.70;;
10967;SDS011;5536;49.602;10.980;2023-05-23T12:46:35;2.28;;;0.60;;
10967;SDS011;5536;49.602;10.980;2023-05-23T12:49:03;1.83;;;1.20;;
10967;SDS011;5536;49.602;10.980;2023-05-23T12:51:30;0.95;;;0.88;;
10967;SDS011;5536;49.602;10.980;2023-05-23T12:53:57;0.63;;;0.63;;
10967;SDS011;5536;49.602;10.980;2023-05-23T12:56:24;0.63;;;0.63;;
10967;SDS011;5536;49.602;10.980;2023-05-23T12:58:53;0.60;;;0.60;;
10967;SDS011;5536;49.602;10.980;2023-05-23T13:01:21;0.82;;;0.82;;
10967;SDS011;5536;49.602;10.980;2023-05-23T13:03:48;0.98;;;0.70;;
10967;SDS011;5536;49.602;10.980;2023-05-23T13:06:16;0.47;;;0.47;;
10967;SDS011;5536;49.602;10.980;2023-05-23T13:08:43;0.47;;;0.47;;
10967;SDS011;5536;49.602;10.980;2023-05-23T13:11:10;0.70;;;0.63;;
10967;SDS011;5536;49.602;10.980;2023-05-23T13:13:37;2.92;;;1.00;;
10967;SDS011;5536;49.602;10.980;2023-05-23T13:16:06;0.60;;;0.60;;
10967;SDS011;5536;49.602;10.980;2023-05-23T13:18:33;0.77;;;0.77;;
10967;SDS011;5536;49.602;10.980;2023-05-23T13:21:00;0.60;;;0.60;;
10967;SDS011;5536;49.602;10.980;2023-05-23T13:23:27;0.38;;;0.38;;
10967;SDS011;5536;49.602;10.980;2023-05-23T13:25:56;0.60;;;0.60;;
10967;SDS011;5536;49.602;10.980;2023-05-23T13:28:23;0.63;;;0.63;;
10967;SDS011;5536;49.602;10.980;2023-05-23T13:30:51;0.90;;;0.90;;
10967;SDS011;5536;49.602;10.980;2023-05-23T13:33:19;0.70;;;0.70;;
10967;SDS011;5536;49.602;10.980;2023-05-23T13:35:47;0.68;;;0.68;;
10967;SDS011;5536;49.602;10.980;2023-05-23T13:38:16;0.60;;;0.60;;
10967;SDS011;5536;49.602;10.980;2023-05-23T13:40:43;0.73;;;0.63;;
10967;SDS011;5536;49.602;10.980;2023-05-23T13:43:10;0.50;;;0.50;;
10967;SDS011;5536;49.602;10.980;2023-05-23T13:45:38;1.85;;;0.60;;
10967;SDS011;5536;49.602;10.980;2023-05-23T13:48:05;0.85;;;0.47;;
10967;SDS011;5536;49.602;10.980;2023-05-23T13:50:37;0.52;;;0.40;;
10967;SDS011;5536;49.602;10.980;2023-05-23T13:53:04;0.60;;;0.60;;
10967;SDS011;5536;49.602;10.980;2023-05-23T13:55:38;0.45;;;0.45;;
10967;SDS011;5536;49.602;10.980;2023-05-23T13:58:05;0.38;;;0.38;;
10967;SDS011;5536;49.602;10.980;2023-05-23T14:00:34;0.50;;;0.50;;
10967;SDS011;5536;49.602;10.980;2023-05-23T14:03:02;0.95;;;0.52;;
10967;SDS011;5536;49.602;10.980;2023-05-23T14:05:29;0.60;;;0.60;;
10967;SDS011;5536;49.602;10.980;2023-05-23T14:07:57;0.35;;;0.35;;
10967;SDS011;5536;49.602;10.980;2023-05-23T14:10:24;0.70;;;0.70;;
10967;SDS011;5536;49.602;10.980;2023-05-23T14:12:53;0.52;;;0.52;;
10967;SDS011;5536;49.602;10.980;2023-05-23T14:15:20;0.40;;;0.40;;
10967;SDS011;5536;49.602;10.980;2023-05-23T14:17:47;0.32;;;0.32;;
10967;SDS011;5536;49.602;10.980;2023-05-23T14:20:19;0.55;;;0.55;;
10967;SDS011;5536;49.602;10.980;2023-05-23T14:22:46;0.55;;;0.45;;
10967;SDS011;5536;49.602;10.980;2023-05-23T14:25:15;0.47;;;0.40;;
10967;SDS011;5536;49.602;10.980;2023-05-23T14:27:43;0.57;;;0.57;;
10967;SDS011;5536;49.602;10.980;2023-05-23T14:30:10;0.60;;;0.60;;
10967;SDS011;5536;49.602;10.980;2023-05-23T14:32:38;0.77;;;0.77;;
10967;SDS011;5536;49.602;10.980;2023-05-23T14:35:06;1.17;;;0.60;;
10967;SDS011;5536;49.602;10.980;2023-05-23T14:37:35;0.52;;;0.52;;
10967;SDS011;5536;49.602;10.980;2023-05-23T14:40:02;0.60;;;0.60;;
10967;SDS011;5536;49.602;10.980;2023-05-23T14:42:32;0.60;;;0.60;;
10967;SDS011;5536;49.602;10.980;2023-05-23T14:44:59;0.50;;;0.50;;
10967;SDS011;5536;49.602;10.980;2023-05-23T14:47:26;0.80;;;0.80;;
10967;SDS011;5536;49.602;10.980;2023-05-23T14:49:53;1.55;;;0.80;;
10967;SDS011;5536;49.602;10.980;2023-05-23T14:52:23;0.70;;;0.70;;
10967;SDS011;5536;49.602;10.980;2023-05-23T14:54:51;0.70;;;0.70;;
10967;SDS011;5536;49.602;10.980;2023-05-23T14:57:19;1.70;;;0.70;;
10967;SDS011;5536;49.602;10.980;2023-05-23T14:59:47;0.57;;;0.57;;
10967;SDS011;5536;49.602;10.980;2023-05-23T15:02:15;0.22;;;0.20;;